sensor_id;sensor_type;location;lat;lon;timestamp;temperature;humidity
15257;DHT22;7731;50.720;6.912;2023-03-18T00:01:14;11.80;99.90
15257;DHT22;7731;50.720;6.912;2023-03-18T00:03:46;11.80;99.90
15257;DHT22;7731;50.720;6.912;2023-03-18T00:06:19;11.70;99.90
15257;DHT22;7731;50.720;6.912;2023-03-18T00:08:50;11.80;99.90
15257;DHT22;7731;50.720;6.912;2023-03-18T00:11:20;11.90;99.90
15257;DHT22;7731;50.720;6.912;2023-03-18T00:13:53;12.00;99.90
15257;DHT22;7731;50.720;6.912;2023-03-18T00:16:23;11.90;99.90
15257;DHT22;7731;50.720;6.912;2023-03-18T00:18:54;11.80;99.90
15257;DHT22;7731;50.720;6.912;2023-03-18T00:21:24;11.80;99.90
15257;DHT22;7731;50.720;6.912;2023-03-18T00:23:54;11.90;99.90
15257;DHT22;7731;50.720;6.912;2023-03-18T00:26:27;11.90;99.90
15257;DHT22;7731;50.720;6.912;2023-03-18T00:29:00;12.00;99.90
15257;DHT22;7731;50.720;6.912;2023-03-18T00:31:30;12.00;99.90
15257;DHT22;7731;50.720;6.912;2023-03-18T00:34:02;12.00;99.90
15257;DHT22;7731;50.720;6.912;2023-03-18T00:36:32;11.90;99.90
15257;DHT22;7731;50.720;6.912;2023-03-18T00:39:03;11.90;99.90
15257;DHT22;7731;50.720;6.912;2023-03-18T00:41:33;11.90;99.90
15257;DHT22;7731;50.720;6.912;2023-03-18T00:44:06;11.80;99.90
15257;DHT22;7731;50.720;6.912;2023-03-18T00:46:37;11.70;99.90
15257;DHT22;7731;50.720;6.912;2023-03-18T00:49:10;11.80;99.90
15257;DHT22;7731;50.720;6.912;2023-03-18T00:51:44;11.80;99.90
15257;DHT22;7731;50.720;6.912;2023-03-18T00:54:16;11.80;99.90
15257;DHT22;7731;50.720;6.912;2023-03-18T00:56:46;11.80;99.90
15257;DHT22;7731;50.720;6.912;2023-03-18T00:59:21;11.80;99.90
15257;DHT22;7731;50.720;6.912;2023-03-18T01:01:52;11.90;99.90
15257;DHT22;7731;50.720;6.912;2023-03-18T01:04:25;11.90;99.90
15257;DHT22;7731;50.720;6.912;2023-03-18T01:06:55;11.90;99.90
15257;DHT22;7731;50.720;6.912;2023-03-18T01:09:28;11.80;99.90
15257;DHT22;7731;50.720;6.912;2023-03-18T01:11:58;11.80;99.90
15257;DHT22;7731;50.720;6.912;2023-03-18T01:14:31;11.80;99.90
15257;DHT22;7731;50.720;6.912;2023-03-18T01:17:05;11.90;99.90
15257;DHT22;7731;50.720;6.912;2023-03-18T01:19:36;11.90;99.90
15257;DHT22;7731;50.720;6.912;2023-03-18T01:22:07;11.90;99.90
15257;DHT22;7731;50.720;6.912;2023-03-18T01:24:39;11.90;99.90
15257;DHT22;7731;50.720;6.912;2023-03-18T01:27:09;11.90;99.90
15257;DHT22;7731;50.720;6.912;2023-03-18T01:29:44;11.90;99.90
15257;DHT22;7731;50.720;6.912;2023-03-18T01:32:15;11.80;99.90
15257;DHT22;7731;50.720;6.912;2023-03-18T01:34:45;11.70;99.90
15257;DHT22;7731;50.720;6.912;2023-03-18T01:37:15;11.70;99.90
15257;DHT22;7731;50.720;6.912;2023-03-18T01:39:47;11.80;99.90
15257;DHT22;7731;50.720;6.912;2023-03-18T01:42:20;11.80;99.90
15257;DHT22;7731;50.720;6.912;2023-03-18T01:45:14;11.80;99.90
15257;DHT22;7731;50.720;6.912;2023-03-18T01:47:48;11.80;99.90
15257;DHT22;7731;50.720;6.912;2023-03-18T01:50:21;11.80;99.90
15257;DHT22;7731;50.720;6.912;2023-03-18T01:52:59;11.70;99.90
15257;DHT22;7731;50.720;6.912;2023-03-18T01:55:33;11.60;99.90
15257;DHT22;7731;50.720;6.912;2023-03-18T01:58:15;11.60;99.90
15257;DHT22;7731;50.720;6.912;2023-03-18T02:00:58;11.50;99.90
15257;DHT22;7731;50.720;6.912;2023-03-18T02:03:32;11.50;99.90
15257;DHT22;7731;50.720;6.912;2023-03-18T02:06:04;11.50;99.90
15257;DHT22;7731;50.720;6.912;2023-03-18T02:08:35;11.50;99.90
15257;DHT22;7731;50.720;6.912;2023-03-18T02:11:07;11.50;99.90
15257;DHT22;7731;50.720;6.912;2023-03-18T02:13:41;11.50;99.90
15257;DHT22;7731;50.720;6.912;2023-03-18T02:16:19;11.50;99.90
15257;DHT22;7731;50.720;6.912;2023-03-18T02:18:57;11.50;99.90
15257;DHT22;7731;50.720;6.912;2023-03-18T02:21:39;11.60;99.90
15257;DHT22;7731;50.720;6.912;2023-03-18T02:24:23;11.60;99.90
15257;DHT22;7731;50.720;6.912;2023-03-18T02:27:13;11.60;99.90
15257;DHT22;7731;50.720;6.912;2023-03-18T02:29:46;11.60;99.90
15257;DHT22;7731;50.720;6.912;2023-03-18T02:32:18;11.60;99.90
15257;DHT22;7731;50.720;6.912;2023-03-18T02:34:50;11.60;99.90
15257;DHT22;7731;50.720;6.912;2023-03-18T02:37:20;11.50;99.90
15257;DHT22;7731;50.720;6.912;2023-03-18T02:39:50;11.50;99.90
15257;DHT22;7731;50.720;6.912;2023-03-18T02:42:31;11.40;99.90
15257;DHT22;7731;50.720;6.912;2023-03-18T02:45:01;11.40;99.90
15257;DHT22;7731;50.720;6.912;2023-03-18T02:47:32;11.40;99.90
15257;DHT22;7731;50.720;6.912;2023-03-18T02:50:03;11.30;99.90
15257;DHT22;7731;50.720;6.912;2023-03-18T02:52:34;11.20;99.90
15257;DHT22;7731;50.720;6.912;2023-03-18T02:55:05;11.10;99.90
15257;DHT22;7731;50.720;6.912;2023-03-18T02:57:38;11.20;99.90
15257;DHT22;7731;50.720;6.912;2023-03-18T03:00:10;11.10;99.90
15257;DHT22;7731;50.720;6.912;2023-03-18T03:02:43;11.00;99.90
15257;DHT22;7731;50.720;6.912;2023-03-18T03:05:13;11.00;99.90
15257;DHT22;7731;50.720;6.912;2023-03-18T03:07:46;11.00;99.90
15257;DHT22;7731;50.720;6.912;2023-03-18T03:10:18;11.00;99.90
15257;DHT22;7731;50.720;6.912;2023-03-18T03:12:51;11.00;99.90
15257;DHT22;7731;50.720;6.912;2023-03-18T03:15:22;11.00;99.90
15257;DHT22;7731;50.720;6.912;2023-03-18T03:17:52;11.00;99.90
15257;DHT22;7731;50.720;6.912;2023-03-18T03:20:23;11.00;99.90
15257;DHT22;7731;50.720;6.912;2023-03-18T03:22:54;10.90;99.90
15257;DHT22;7731;50.720;6.912;2023-03-18T03:25:24;10.90;99.90
15257;DHT22;7731;50.720;6.912;2023-03-18T03:27:57;10.90;99.90
15257;DHT22;7731;50.720;6.912;2023-03-18T03:30:29;10.80;99.90
15257;DHT22;7731;50.720;6.912;2023-03-18T03:33:00;10.80;99.90
15257;DHT22;7731;50.720;6.912;2023-03-18T03:35:30;10.80;99.90
15257;DHT22;7731;50.720;6.912;2023-03-18T03:38:01;10.90;99.90
15257;DHT22;7731;50.720;6.912;2023-03-18T03:40:32;10.80;99.90
15257;DHT22;7731;50.720;6.912;2023-03-18T03:43:05;10.70;99.90
15257;DHT22;7731;50.720;6.912;2023-03-18T03:45:36;10.60;99.90
15257;DHT22;7731;50.720;6.912;2023-03-18T03:48:06;10.60;99.90
15257;DHT22;7731;50.720;6.912;2023-03-18T03:50:38;10.60;99.90
15257;DHT22;7731;50.720;6.912;2023-03-18T03:53:08;10.60;99.90
15257;DHT22;7731;50.720;6.912;2023-03-18T03:55:39;10.60;99.90
15257;DHT22;7731;50.720;6.912;2023-03-18T03:58:14;10.50;99.90
15257;DHT22;7731;50.720;6.912;2023-03-18T04:00:44;10.50;99.90
15257;DHT22;7731;50.720;6.912;2023-03-18T04:03:18;10.40;99.90
15257;DHT22;7731;50.720;6.912;2023-03-18T04:05:49;10.50;99.90
15257;DHT22;7731;50.720;6.912;2023-03-18T04:08:20;10.50;99.90
15257;DHT22;7731;50.720;6.912;2023-03-18T04:10:51;10.50;99.90
15257;DHT22;7731;50.720;6.912;2023-03-18T04:13:24;10.40;99.90
15257;DHT22;7731;50.720;6.912;2023-03-18T04:15:54;10.30;99.90
15257;DHT22;7731;50.720;6.912;2023-03-18T04:18:24;10.20;99.90
15257;DHT22;7731;50.720;6.912;2023-03-18T04:20:54;10.20;99.90
15257;DHT22;7731;50.720;6.912;2023-03-18T04:23:24;10.10;99.90
15257;DHT22;7731;50.720;6.912;2023-03-18T04:25:54;10.00;99.90
15257;DHT22;7731;50.720;6.912;2023-03-18T04:28:27;10.00;99.90
15257;DHT22;7731;50.720;6.912;2023-03-18T04:30:57;10.00;99.90
15257;DHT22;7731;50.720;6.912;2023-03-18T04:33:28;9.90;99.90
15257;DHT22;7731;50.720;6.912;2023-03-18T04:35:58;9.80;99.90
15257;DHT22;7731;50.720;6.912;2023-03-18T04:38:28;9.80;99.90
15257;DHT22;7731;50.720;6.912;2023-03-18T04:40:59;9.80;99.90
15257;DHT22;7731;50.720;6.912;2023-03-18T04:43:32;9.80;99.90
15257;DHT22;7731;50.720;6.912;2023-03-18T04:46:04;9.80;99.90
15257;DHT22;7731;50.720;6.912;2023-03-18T04:48:36;9.70;99.90
15257;DHT22;7731;50.720;6.912;2023-03-18T04:51:08;9.60;99.90
15257;DHT22;7731;50.720;6.912;2023-03-18T04:53:39;9.50;99.90
15257;DHT22;7731;50.720;6.912;2023-03-18T04:56:09;9.50;99.90
15257;DHT22;7731;50.720;6.912;2023-03-18T04:58:42;9.50;99.90
15257;DHT22;7731;50.720;6.912;2023-03-18T05:01:13;9.50;99.90
15257;DHT22;7731;50.720;6.912;2023-03-18T05:03:43;9.50;99.90
15257;DHT22;7731;50.720;6.912;2023-03-18T05:06:20;9.60;99.90
15257;DHT22;7731;50.720;6.912;2023-03-18T05:08:53;9.70;99.90
15257;DHT22;7731;50.720;6.912;2023-03-18T05:11:26;9.70;99.90
15257;DHT22;7731;50.720;6.912;2023-03-18T05:14:01;9.70;99.90
15257;DHT22;7731;50.720;6.912;2023-03-18T05:16:32;9.80;99.90
15257;DHT22;7731;50.720;6.912;2023-03-18T05:19:05;9.80;99.90
15257;DHT22;7731;50.720;6.912;2023-03-18T05:21:37;9.80;99.90
15257;DHT22;7731;50.720;6.912;2023-03-18T05:24:07;9.80;99.90
15257;DHT22;7731;50.720;6.912;2023-03-18T05:26:38;9.70;99.90
15257;DHT22;7731;50.720;6.912;2023-03-18T05:29:17;9.60;99.90
15257;DHT22;7731;50.720;6.912;2023-03-18T05:31:50;9.60;99.90
15257;DHT22;7731;50.720;6.912;2023-03-18T05:34:21;9.50;99.90
15257;DHT22;7731;50.720;6.912;2023-03-18T05:36:52;9.60;99.90
15257;DHT22;7731;50.720;6.912;2023-03-18T05:39:23;9.60;99.90
15257;DHT22;7731;50.720;6.912;2023-03-18T05:41:54;9.60;99.90
15257;DHT22;7731;50.720;6.912;2023-03-18T05:44:26;9.60;99.90
15257;DHT22;7731;50.720;6.912;2023-03-18T05:46:57;9.60;99.90
15257;DHT22;7731;50.720;6.912;2023-03-18T05:49:27;9.50;99.90
15257;DHT22;7731;50.720;6.912;2023-03-18T05:51:58;9.50;99.90
15257;DHT22;7731;50.720;6.912;2023-03-18T05:54:29;9.50;99.90
15257;DHT22;7731;50.720;6.912;2023-03-18T05:56:59;9.60;99.90
15257;DHT22;7731;50.720;6.912;2023-03-18T05:59:32;9.50;99.90
15257;DHT22;7731;50.720;6.912;2023-03-18T06:02:02;9.50;99.90
15257;DHT22;7731;50.720;6.912;2023-03-18T06:04:33;9.60;99.90
15257;DHT22;7731;50.720;6.912;2023-03-18T06:07:03;9.60;99.90
15257;DHT22;7731;50.720;6.912;2023-03-18T06:09:33;9.60;99.90
15257;DHT22;7731;50.720;6.912;2023-03-18T06:12:04;9.50;99.90
15257;DHT22;7731;50.720;6.912;2023-03-18T06:14:38;9.60;99.90
15257;DHT22;7731;50.720;6.912;2023-03-18T06:17:08;9.60;99.90
15257;DHT22;7731;50.720;6.912;2023-03-18T06:19:39;9.60;99.90
15257;DHT22;7731;50.720;6.912;2023-03-18T06:22:11;9.60;99.90
15257;DHT22;7731;50.720;6.912;2023-03-18T06:24:43;9.70;99.90
15257;DHT22;7731;50.720;6.912;2023-03-18T06:27:14;9.70;99.90
15257;DHT22;7731;50.720;6.912;2023-03-18T06:29:47;9.80;99.90
15257;DHT22;7731;50.720;6.912;2023-03-18T06:32:17;9.90;99.90
15257;DHT22;7731;50.720;6.912;2023-03-18T06:34:47;10.00;99.90
15257;DHT22;7731;50.720;6.912;2023-03-18T06:37:18;10.10;99.90
15257;DHT22;7731;50.720;6.912;2023-03-18T06:39:48;10.10;99.90
15257;DHT22;7731;50.720;6.912;2023-03-18T06:42:20;10.20;99.90
15257;DHT22;7731;50.720;6.912;2023-03-18T06:44:52;10.30;99.90
15257;DHT22;7731;50.720;6.912;2023-03-18T06:47:23;10.30;99.90
15257;DHT22;7731;50.720;6.912;2023-03-18T06:49:54;10.30;99.90
15257;DHT22;7731;50.720;6.912;2023-03-18T06:52:24;10.40;99.90
15257;DHT22;7731;50.720;6.912;2023-03-18T06:54:55;10.50;99.90
15257;DHT22;7731;50.720;6.912;2023-03-18T06:57:25;10.70;99.90
15257;DHT22;7731;50.720;6.912;2023-03-18T06:59:58;10.90;99.90
15257;DHT22;7731;50.720;6.912;2023-03-18T07:02:28;10.90;99.90
15257;DHT22;7731;50.720;6.912;2023-03-18T07:04:58;10.90;99.90
15257;DHT22;7731;50.720;6.912;2023-03-18T07:07:30;11.00;99.90
15257;DHT22;7731;50.720;6.912;2023-03-18T07:10:04;11.00;99.90
15257;DHT22;7731;50.720;6.912;2023-03-18T07:12:36;11.10;99.90
15257;DHT22;7731;50.720;6.912;2023-03-18T07:15:11;11.20;99.90
15257;DHT22;7731;50.720;6.912;2023-03-18T07:17:42;11.40;99.90
15257;DHT22;7731;50.720;6.912;2023-03-18T07:20:13;11.50;99.90
15257;DHT22;7731;50.720;6.912;2023-03-18T07:22:45;11.60;99.90
15257;DHT22;7731;50.720;6.912;2023-03-18T07:25:17;11.90;99.90
15257;DHT22;7731;50.720;6.912;2023-03-18T07:27:49;12.20;99.90
15257;DHT22;7731;50.720;6.912;2023-03-18T07:30:21;12.30;99.90
15257;DHT22;7731;50.720;6.912;2023-03-18T07:32:53;12.50;99.90
15257;DHT22;7731;50.720;6.912;2023-03-18T07:35:25;12.70;99.90
15257;DHT22;7731;50.720;6.912;2023-03-18T07:37:56;12.80;99.90
15257;DHT22;7731;50.720;6.912;2023-03-18T07:40:26;13.00;99.90
15257;DHT22;7731;50.720;6.912;2023-03-18T07:42:56;13.10;99.90
15257;DHT22;7731;50.720;6.912;2023-03-18T07:45:29;13.30;99.90
15257;DHT22;7731;50.720;6.912;2023-03-18T07:48:00;13.70;99.90
15257;DHT22;7731;50.720;6.912;2023-03-18T07:50:32;14.20;99.90
15257;DHT22;7731;50.720;6.912;2023-03-18T07:53:02;15.30;99.90
15257;DHT22;7731;50.720;6.912;2023-03-18T07:55:35;16.40;33.00
15257;DHT22;7731;50.720;6.912;2023-03-18T07:58:09;17.50;1.00
15257;DHT22;7731;50.720;6.912;2023-03-18T08:00:42;18.90;1.00
15257;DHT22;7731;50.720;6.912;2023-03-18T08:03:12;19.90;99.90
15257;DHT22;7731;50.720;6.912;2023-03-18T08:05:43;19.70;1.00
15257;DHT22;7731;50.720;6.912;2023-03-18T08:08:14;19.40;99.90
15257;DHT22;7731;50.720;6.912;2023-03-18T08:10:45;19.30;1.00
15257;DHT22;7731;50.720;6.912;2023-03-18T08:13:15;18.80;99.90
15257;DHT22;7731;50.720;6.912;2023-03-18T08:15:48;17.90;1.00
15257;DHT22;7731;50.720;6.912;2023-03-18T08:18:18;17.70;1.00
15257;DHT22;7731;50.720;6.912;2023-03-18T08:20:49;18.40;1.00
15257;DHT22;7731;50.720;6.912;2023-03-18T08:23:21;18.90;1.00
15257;DHT22;7731;50.720;6.912;2023-03-18T08:25:51;19.40;99.90
15257;DHT22;7731;50.720;6.912;2023-03-18T08:28:25;20.30;99.90
15257;DHT22;7731;50.720;6.912;2023-03-18T08:30:58;21.10;99.90
15257;DHT22;7731;50.720;6.912;2023-03-18T08:33:29;21.20;99.90
15257;DHT22;7731;50.720;6.912;2023-03-18T08:36:02;21.50;1.00
15257;DHT22;7731;50.720;6.912;2023-03-18T08:38:35;21.10;99.90
15257;DHT22;7731;50.720;6.912;2023-03-18T08:41:10;20.60;2.40
15257;DHT22;7731;50.720;6.912;2023-03-18T08:43:43;19.90;99.90
15257;DHT22;7731;50.720;6.912;2023-03-18T08:46:20;19.50;1.00
15257;DHT22;7731;50.720;6.912;2023-03-18T08:48:51;19.60;99.90
15257;DHT22;7731;50.720;6.912;2023-03-18T08:51:22;19.30;62.80
15257;DHT22;7731;50.720;6.912;2023-03-18T08:53:53;19.10;1.00
15257;DHT22;7731;50.720;6.912;2023-03-18T08:56:23;18.70;99.90
15257;DHT22;7731;50.720;6.912;2023-03-18T08:58:54;18.30;1.00
15257;DHT22;7731;50.720;6.912;2023-03-18T09:01:27;18.00;1.00
15257;DHT22;7731;50.720;6.912;2023-03-18T09:03:57;18.00;1.00
15257;DHT22;7731;50.720;6.912;2023-03-18T09:06:28;18.00;1.00
15257;DHT22;7731;50.720;6.912;2023-03-18T09:08:58;18.40;1.00
15257;DHT22;7731;50.720;6.912;2023-03-18T09:11:29;18.70;1.00
15257;DHT22;7731;50.720;6.912;2023-03-18T09:13:59;18.50;1.00
15257;DHT22;7731;50.720;6.912;2023-03-18T09:16:32;18.40;1.00
15257;DHT22;7731;50.720;6.912;2023-03-18T09:19:03;18.10;1.00
15257;DHT22;7731;50.720;6.912;2023-03-18T09:21:33;17.70;1.00
15257;DHT22;7731;50.720;6.912;2023-03-18T09:24:05;17.70;1.00
15257;DHT22;7731;50.720;6.912;2023-03-18T09:26:36;17.70;1.00
15257;DHT22;7731;50.720;6.912;2023-03-18T09:29:09;18.20;1.00
15257;DHT22;7731;50.720;6.912;2023-03-18T09:31:42;18.80;1.00
15257;DHT22;7731;50.720;6.912;2023-03-18T09:34:12;19.30;99.90
15257;DHT22;7731;50.720;6.912;2023-03-18T09:36:42;19.80;99.90
15257;DHT22;7731;50.720;6.912;2023-03-18T09:39:17;20.20;99.90
15257;DHT22;7731;50.720;6.912;2023-03-18T09:41:58;19.80;99.90
15257;DHT22;7731;50.720;6.912;2023-03-18T09:44:38;19.80;1.00
15257;DHT22;7731;50.720;6.912;2023-03-18T09:47:23;19.60;1.00
15257;DHT22;7731;50.720;6.912;2023-03-18T09:50:18;20.00;1.00
15257;DHT22;7731;50.720;6.912;2023-03-18T09:53:08;20.30;1.00
15257;DHT22;7731;50.720;6.912;2023-03-18T09:55:46;20.70;99.90
15257;DHT22;7731;50.720;6.912;2023-03-18T09:58:24;20.70;1.00
15257;DHT22;7731;50.720;6.912;2023-03-18T10:01:02;20.80;99.90
15257;DHT22;7731;50.720;6.912;2023-03-18T10:03:41;21.90;1.00
15257;DHT22;7731;50.720;6.912;2023-03-18T10:06:17;21.90;1.00
15257;DHT22;7731;50.720;6.912;2023-03-18T10:08:57;22.60;1.00
15257;DHT22;7731;50.720;6.912;2023-03-18T10:11:39;23.00;99.90
15257;DHT22;7731;50.720;6.912;2023-03-18T10:14:34;23.70;1.00
15257;DHT22;7731;50.720;6.912;2023-03-18T10:17:16;24.20;1.00
15257;DHT22;7731;50.720;6.912;2023-03-18T10:19:53;23.80;1.00
15257;DHT22;7731;50.720;6.912;2023-03-18T10:22:46;23.70;1.00
15257;DHT22;7731;50.720;6.912;2023-03-18T10:25:30;23.60;1.00
15257;DHT22;7731;50.720;6.912;2023-03-18T10:28:35;23.40;1.00
15257;DHT22;7731;50.720;6.912;2023-03-18T10:31:46;23.10;1.00
15257;DHT22;7731;50.720;6.912;2023-03-18T10:34:32;22.80;18.70
15257;DHT22;7731;50.720;6.912;2023-03-18T10:37:18;22.50;99.90
15257;DHT22;7731;50.720;6.912;2023-03-18T10:39:57;22.30;99.90
15257;DHT22;7731;50.720;6.912;2023-03-18T10:42:30;21.90;1.00
15257;DHT22;7731;50.720;6.912;2023-03-18T10:45:07;21.90;99.90
15257;DHT22;7731;50.720;6.912;2023-03-18T10:47:52;22.40;1.00
15257;DHT22;7731;50.720;6.912;2023-03-18T10:50:40;22.90;99.90
15257;DHT22;7731;50.720;6.912;2023-03-18T10:53:19;23.40;1.00
15257;DHT22;7731;50.720;6.912;2023-03-18T10:56:00;23.30;1.00
15257;DHT22;7731;50.720;6.912;2023-03-18T10:58:37;23.60;1.00
15257;DHT22;7731;50.720;6.912;2023-03-18T11:01:10;23.80;1.00
15257;DHT22;7731;50.720;6.912;2023-03-18T11:03:51;23.00;23.80
15257;DHT22;7731;50.720;6.912;2023-03-18T11:06:27;22.90;99.90
15257;DHT22;7731;50.720;6.912;2023-03-18T11:09:10;23.90;1.00
15257;DHT22;7731;50.720;6.912;2023-03-18T11:11:43;23.80;1.00
15257;DHT22;7731;50.720;6.912;2023-03-18T11:14:20;23.60;1.00
15257;DHT22;7731;50.720;6.912;2023-03-18T11:17:00;22.20;1.00
15257;DHT22;7731;50.720;6.912;2023-03-18T11:19:35;21.50;1.00
15257;DHT22;7731;50.720;6.912;2023-03-18T11:22:20;20.80;99.90
15257;DHT22;7731;50.720;6.912;2023-03-18T11:25:13;20.40;99.90
15257;DHT22;7731;50.720;6.912;2023-03-18T11:27:46;20.20;1.00
15257;DHT22;7731;50.720;6.912;2023-03-18T11:30:20;20.60;52.20
15257;DHT22;7731;50.720;6.912;2023-03-18T11:33:12;21.20;99.90
15257;DHT22;7731;50.720;6.912;2023-03-18T11:35:49;21.80;1.00
15257;DHT22;7731;50.720;6.912;2023-03-18T11:38:26;22.10;99.90
15257;DHT22;7731;50.720;6.912;2023-03-18T11:41:07;22.00;1.00
15257;DHT22;7731;50.720;6.912;2023-03-18T11:43:55;22.30;1.00
15257;DHT22;7731;50.720;6.912;2023-03-18T11:46:30;22.00;1.00
15257;DHT22;7731;50.720;6.912;2023-03-18T11:49:02;21.90;1.00
15257;DHT22;7731;50.720;6.912;2023-03-18T11:51:39;22.00;1.00
15257;DHT22;7731;50.720;6.912;2023-03-18T11:54:43;21.80;1.00
15257;DHT22;7731;50.720;6.912;2023-03-18T11:57:40;21.30;99.90
15257;DHT22;7731;50.720;6.912;2023-03-18T12:00:27;21.00;1.00
15257;DHT22;7731;50.720;6.912;2023-03-18T12:03:30;20.40;89.40
15257;DHT22;7731;50.720;6.912;2023-03-18T12:06:23;20.10;1.00
15257;DHT22;7731;50.720;6.912;2023-03-18T12:09:08;20.00;1.00
15257;DHT22;7731;50.720;6.912;2023-03-18T12:12:01;19.40;1.00
15257;DHT22;7731;50.720;6.912;2023-03-18T12:14:52;19.60;99.90
15257;DHT22;7731;50.720;6.912;2023-03-18T12:17:39;19.90;99.90
15257;DHT22;7731;50.720;6.912;2023-03-18T12:20:45;20.00;1.00
15257;DHT22;7731;50.720;6.912;2023-03-18T12:23:34;20.00;1.00
15257;DHT22;7731;50.720;6.912;2023-03-18T12:26:21;19.80;1.00
15257;DHT22;7731;50.720;6.912;2023-03-18T12:32:29;19.90;99.90
15257;DHT22;7731;50.720;6.912;2023-03-18T12:35:28;19.80;1.00
15257;DHT22;7731;50.720;6.912;2023-03-18T12:41:51;19.50;99.90
15257;DHT22;7731;50.720;6.912;2023-03-18T12:44:38;19.20;96.00
15257;DHT22;7731;50.720;6.912;2023-03-18T12:47:32;19.20;99.90
15257;DHT22;7731;50.720;6.912;2023-03-18T12:50:13;19.10;99.90
15257;DHT22;7731;50.720;6.912;2023-03-18T12:52:52;19.20;1.00
15257;DHT22;7731;50.720;6.912;2023-03-18T12:55:29;19.00;1.00
15257;DHT22;7731;50.720;6.912;2023-03-18T12:58:05;18.70;1.00
15257;DHT22;7731;50.720;6.912;2023-03-18T13:00:46;18.60;1.00
15257;DHT22;7731;50.720;6.912;2023-03-18T13:03:31;18.40;99.90
15257;DHT22;7731;50.720;6.912;2023-03-18T13:06:07;18.50;99.90
15257;DHT22;7731;50.720;6.912;2023-03-18T13:08:54;18.60;99.90
15257;DHT22;7731;50.720;6.912;2023-03-18T13:11:51;18.70;1.00
15257;DHT22;7731;50.720;6.912;2023-03-18T13:14:53;18.80;1.00
15257;DHT22;7731;50.720;6.912;2023-03-18T13:17:31;18.70;60.40
15257;DHT22;7731;50.720;6.912;2023-03-18T13:23:31;18.50;1.00
15257;DHT22;7731;50.720;6.912;2023-03-18T13:26:20;18.40;1.00
15257;DHT22;7731;50.720;6.912;2023-03-18T13:29:08;18.20;1.00
15257;DHT22;7731;50.720;6.912;2023-03-18T13:31:53;18.10;1.00
15257;DHT22;7731;50.720;6.912;2023-03-18T13:38:21;17.50;1.00
15257;DHT22;7731;50.720;6.912;2023-03-18T13:41:28;17.30;1.00
15257;DHT22;7731;50.720;6.912;2023-03-18T13:44:22;17.00;1.00
15257;DHT22;7731;50.720;6.912;2023-03-18T13:47:02;16.90;1.00
15257;DHT22;7731;50.720;6.912;2023-03-18T13:49:36;16.80;1.00
15257;DHT22;7731;50.720;6.912;2023-03-18T13:52:22;16.70;1.00
15257;DHT22;7731;50.720;6.912;2023-03-18T13:55:04;16.70;1.00
15257;DHT22;7731;50.720;6.912;2023-03-18T13:57:47;16.80;1.00
15257;DHT22;7731;50.720;6.912;2023-03-18T14:00:30;16.90;1.00
15257;DHT22;7731;50.720;6.912;2023-03-18T14:03:19;16.90;1.00
15257;DHT22;7731;50.720;6.912;2023-03-18T14:05:51;16.80;1.00
15257;DHT22;7731;50.720;6.912;2023-03-18T14:08:50;16.90;1.00
15257;DHT22;7731;50.720;6.912;2023-03-18T14:11:53;16.90;1.00
15257;DHT22;7731;50.720;6.912;2023-03-18T14:17:29;17.10;1.00
15257;DHT22;7731;50.720;6.912;2023-03-18T14:20:22;17.20;1.00
15257;DHT22;7731;50.720;6.912;2023-03-18T14:22:55;17.20;1.00
15257;DHT22;7731;50.720;6.912;2023-03-18T14:26:07;17.30;1.00
15257;DHT22;7731;50.720;6.912;2023-03-18T14:29:14;17.50;1.00
15257;DHT22;7731;50.720;6.912;2023-03-18T14:31:58;17.40;1.00
15257;DHT22;7731;50.720;6.912;2023-03-18T14:34:52;17.50;1.00
15257;DHT22;7731;50.720;6.912;2023-03-18T14:37:27;17.70;1.00
15257;DHT22;7731;50.720;6.912;2023-03-18T14:40:03;17.70;1.00
15257;DHT22;7731;50.720;6.912;2023-03-18T14:42:49;17.80;1.00
15257;DHT22;7731;50.720;6.912;2023-03-18T14:45:31;18.10;1.00
15257;DHT22;7731;50.720;6.912;2023-03-18T14:48:06;18.50;1.00
15257;DHT22;7731;50.720;6.912;2023-03-18T14:50:46;18.60;99.90
15257;DHT22;7731;50.720;6.912;2023-03-18T14:53:21;18.70;99.90
15257;DHT22;7731;50.720;6.912;2023-03-18T14:55:58;18.60;99.90
15257;DHT22;7731;50.720;6.912;2023-03-18T14:58:34;18.60;1.00
15257;DHT22;7731;50.720;6.912;2023-03-18T15:01:08;18.40;47.80
15257;DHT22;7731;50.720;6.912;2023-03-18T15:03:46;18.20;99.90
15257;DHT22;7731;50.720;6.912;2023-03-18T15:06:21;18.00;99.90
15257;DHT22;7731;50.720;6.912;2023-03-18T15:08:57;17.80;1.00
15257;DHT22;7731;50.720;6.912;2023-03-18T15:11:36;17.70;1.00
15257;DHT22;7731;50.720;6.912;2023-03-18T15:14:10;17.70;1.00
15257;DHT22;7731;50.720;6.912;2023-03-18T15:16:47;17.70;1.00
15257;DHT22;7731;50.720;6.912;2023-03-18T15:19:20;17.70;1.00
15257;DHT22;7731;50.720;6.912;2023-03-18T15:21:53;17.70;1.00
15257;DHT22;7731;50.720;6.912;2023-03-18T15:24:26;17.70;99.90
15257;DHT22;7731;50.720;6.912;2023-03-18T15:27:04;17.80;99.90
15257;DHT22;7731;50.720;6.912;2023-03-18T15:29:44;17.70;99.90
15257;DHT22;7731;50.720;6.912;2023-03-18T15:32:26;17.60;99.90
15257;DHT22;7731;50.720;6.912;2023-03-18T15:35:10;17.40;1.00
15257;DHT22;7731;50.720;6.912;2023-03-18T15:37:45;17.20;1.00
15257;DHT22;7731;50.720;6.912;2023-03-18T15:40:31;17.10;1.00
15257;DHT22;7731;50.720;6.912;2023-03-18T15:43:04;16.80;1.00
15257;DHT22;7731;50.720;6.912;2023-03-18T15:45:52;16.70;1.00
15257;DHT22;7731;50.720;6.912;2023-03-18T15:48:33;16.60;1.00
15257;DHT22;7731;50.720;6.912;2023-03-18T15:51:21;16.60;1.00
15257;DHT22;7731;50.720;6.912;2023-03-18T15:53:55;16.50;1.00
15257;DHT22;7731;50.720;6.912;2023-03-18T15:56:29;16.40;1.00
15257;DHT22;7731;50.720;6.912;2023-03-18T15:59:04;16.30;1.00
15257;DHT22;7731;50.720;6.912;2023-03-18T16:01:42;16.30;1.00
15257;DHT22;7731;50.720;6.912;2023-03-18T16:04:17;16.30;1.00
15257;DHT22;7731;50.720;6.912;2023-03-18T16:06:48;16.30;1.00
15257;DHT22;7731;50.720;6.912;2023-03-18T16:09:20;16.20;1.00
15257;DHT22;7731;50.720;6.912;2023-03-18T16:11:55;16.20;1.00
15257;DHT22;7731;50.720;6.912;2023-03-18T16:14:34;16.20;1.00
15257;DHT22;7731;50.720;6.912;2023-03-18T16:17:09;16.10;1.00
15257;DHT22;7731;50.720;6.912;2023-03-18T16:19:49;16.10;1.00
15257;DHT22;7731;50.720;6.912;2023-03-18T16:22:22;16.00;1.00
15257;DHT22;7731;50.720;6.912;2023-03-18T16:24:53;15.90;1.00
15257;DHT22;7731;50.720;6.912;2023-03-18T16:27:27;15.90;1.00
15257;DHT22;7731;50.720;6.912;2023-03-18T16:30:01;15.80;1.00
15257;DHT22;7731;50.720;6.912;2023-03-18T16:32:32;15.90;1.00
15257;DHT22;7731;50.720;6.912;2023-03-18T16:35:05;15.90;1.00
15257;DHT22;7731;50.720;6.912;2023-03-18T16:37:37;15.90;1.00
15257;DHT22;7731;50.720;6.912;2023-03-18T16:40:14;16.00;1.00
15257;DHT22;7731;50.720;6.912;2023-03-18T16:42:46;16.00;1.00
15257;DHT22;7731;50.720;6.912;2023-03-18T16:45:22;16.10;1.00
15257;DHT22;7731;50.720;6.912;2023-03-18T16:47:58;16.00;1.00
15257;DHT22;7731;50.720;6.912;2023-03-18T16:50:36;16.00;1.00
15257;DHT22;7731;50.720;6.912;2023-03-18T16:53:13;16.00;1.00
15257;DHT22;7731;50.720;6.912;2023-03-18T16:55:47;16.00;1.00
15257;DHT22;7731;50.720;6.912;2023-03-18T16:58:25;15.90;1.00
15257;DHT22;7731;50.720;6.912;2023-03-18T17:01:00;15.70;1.00
15257;DHT22;7731;50.720;6.912;2023-03-18T17:03:32;15.70;1.00
15257;DHT22;7731;50.720;6.912;2023-03-18T17:06:11;15.60;1.00
15257;DHT22;7731;50.720;6.912;2023-03-18T17:08:42;15.50;1.00